sensor_id;sensor_type;location;lat;lon;timestamp;P1;durP1;ratioP1;P2;durP2;ratioP2
77324;SDS011;66387;53.440;10.390;2023-03-30T00:00:51;22.35;;;14.45;;
77324;SDS011;66387;53.440;10.390;2023-03-30T00:03:16;22.20;;;13.98;;
77324;SDS011;66387;53.440;10.390;2023-03-30T00:05:43;19.98;;;13.38;;
77324;SDS011;66387;53.440;10.390;2023-03-30T00:08:10;21.98;;;13.65;;
77324;SDS011;66387;53.440;10.390;2023-03-30T00:10:38;21.15;;;12.27;;
77324;SDS011;66387;53.440;10.390;2023-03-30T00:13:04;18.77;;;12.52;;
77324;SDS011;66387;53.440;10.390;2023-03-30T00:15:31;18.98;;;13.55;;
77324;SDS011;66387;53.440;10.390;2023-03-30T00:17:57;19.50;;;13.15;;
77324;SDS011;66387;53.440;10.390;2023-03-30T00:20:23;17.23;;;13.03;;
77324;SDS011;66387;53.440;10.390;2023-03-30T00:22:48;19.33;;;11.60;;
77324;SDS011;66387;53.440;10.390;2023-03-30T00:25:15;17.33;;;12.90;;
77324;SDS011;66387;53.440;10.390;2023-03-30T00:27:41;16.00;;;11.18;;
77324;SDS011;66387;53.440;10.390;2023-03-30T00:30:08;20.23;;;11.63;;
77324;SDS011;66387;53.440;10.390;2023-03-30T00:32:35;17.90;;;11.38;;
77324;SDS011;66387;53.440;10.390;2023-03-30T00:35:01;16.23;;;10.25;;
77324;SDS011;66387;53.440;10.390;2023-03-30T00:37:26;16.10;;;12.45;;
77324;SDS011;66387;53.440;10.390;2023-03-30T00:39:52;16.73;;;11.95;;
77324;SDS011;66387;53.440;10.390;2023-03-30T00:42:18;18.35;;;12.13;;
77324;SDS011;66387;53.440;10.390;2023-03-30T00:47:40;17.85;;;11.70;;
77324;SDS011;66387;53.440;10.390;2023-03-30T00:50:07;16.17;;;11.43;;
77324;SDS011;66387;53.440;10.390;2023-03-30T00:52:33;18.60;;;11.95;;
77324;SDS011;66387;53.440;10.390;2023-03-30T00:55:01;16.95;;;11.20;;
77324;SDS011;66387;53.440;10.390;2023-03-30T00:57:28;17.02;;;11.45;;
77324;SDS011;66387;53.440;10.390;2023-03-30T00:59:53;17.25;;;12.00;;
77324;SDS011;66387;53.440;10.390;2023-03-30T01:02:19;17.95;;;11.68;;
77324;SDS011;66387;53.440;10.390;2023-03-30T01:04:45;19.55;;;11.82;;
77324;SDS011;66387;53.440;10.390;2023-03-30T01:07:12;16.48;;;10.70;;
77324;SDS011;66387;53.440;10.390;2023-03-30T01:09:39;12.82;;;9.68;;
77324;SDS011;66387;53.440;10.390;2023-03-30T01:12:06;18.20;;;11.60;;
77324;SDS011;66387;53.440;10.390;2023-03-30T01:14:32;15.55;;;11.20;;
77324;SDS011;66387;53.440;10.390;2023-03-30T01:17:07;17.83;;;12.20;;
77324;SDS011;66387;53.440;10.390;2023-03-30T01:28:30;15.13;;;11.07;;
77324;SDS011;66387;53.440;10.390;2023-03-30T01:39:37;20.50;;;11.63;;
77324;SDS011;66387;53.440;10.390;2023-03-30T01:42:20;17.30;;;11.05;;
77324;SDS011;66387;53.440;10.390;2023-03-30T01:44:54;15.27;;;11.38;;
77324;SDS011;66387;53.440;10.390;2023-03-30T01:47:37;16.85;;;11.82;;
77324;SDS011;66387;53.440;10.390;2023-03-30T01:52:42;17.70;;;11.07;;
77324;SDS011;66387;53.440;10.390;2023-03-30T01:55:23;19.92;;;11.98;;
77324;SDS011;66387;53.440;10.390;2023-03-30T01:57:58;17.80;;;12.32;;
77324;SDS011;66387;53.440;10.390;2023-03-30T02:02:59;15.95;;;11.32;;
77324;SDS011;66387;53.440;10.390;2023-03-30T02:05:29;18.65;;;12.73;;
77324;SDS011;66387;53.440;10.390;2023-03-30T02:07:59;19.80;;;12.43;;
77324;SDS011;66387;53.440;10.390;2023-03-30T02:10:29;17.70;;;12.25;;
77324;SDS011;66387;53.440;10.390;2023-03-30T02:12:58;16.58;;;12.07;;
77324;SDS011;66387;53.440;10.390;2023-03-30T02:15:25;21.63;;;11.88;;
77324;SDS011;66387;53.440;10.390;2023-03-30T02:17:57;20.10;;;12.32;;
77324;SDS011;66387;53.440;10.390;2023-03-30T02:20:23;17.53;;;12.10;;
77324;SDS011;66387;53.440;10.390;2023-03-30T02:22:48;19.57;;;11.90;;
77324;SDS011;66387;53.440;10.390;2023-03-30T02:25:14;18.77;;;12.35;;
77324;SDS011;66387;53.440;10.390;2023-03-30T02:27:39;19.23;;;12.70;;
77324;SDS011;66387;53.440;10.390;2023-03-30T02:30:06;19.95;;;13.20;;
77324;SDS011;66387;53.440;10.390;2023-03-30T02:32:35;18.65;;;12.80;;
77324;SDS011;66387;53.440;10.390;2023-03-30T02:35:12;21.67;;;12.60;;
77324;SDS011;66387;53.440;10.390;2023-03-30T02:43:48;18.30;;;13.18;;
77324;SDS011;66387;53.440;10.390;2023-03-30T02:46:52;20.40;;;12.40;;
77324;SDS011;66387;53.440;10.390;2023-03-30T03:00:38;19.80;;;12.35;;
77324;SDS011;66387;53.440;10.390;2023-03-30T03:03:13;18.80;;;12.90;;
77324;SDS011;66387;53.440;10.390;2023-03-30T03:05:43;17.08;;;11.77;;
77324;SDS011;66387;53.440;10.390;2023-03-30T03:08:11;19.80;;;12.18;;
77324;SDS011;66387;53.440;10.390;2023-03-30T03:10:38;19.50;;;11.98;;
77324;SDS011;66387;53.440;10.390;2023-03-30T03:13:03;16.87;;;11.63;;
77324;SDS011;66387;53.440;10.390;2023-03-30T03:15:29;17.23;;;11.33;;
77324;SDS011;66387;53.440;10.390;2023-03-30T03:17:54;16.67;;;10.97;;
77324;SDS011;66387;53.440;10.390;2023-03-30T03:20:19;15.17;;;11.27;;
77324;SDS011;66387;53.440;10.390;2023-03-30T03:22:45;16.25;;;10.75;;
77324;SDS011;66387;53.440;10.390;2023-03-30T03:25:10;19.77;;;11.67;;
77324;SDS011;66387;53.440;10.390;2023-03-30T03:27:35;16.60;;;11.10;;
77324;SDS011;66387;53.440;10.390;2023-03-30T03:30:01;16.08;;;11.52;;
77324;SDS011;66387;53.440;10.390;2023-03-30T03:32:26;15.13;;;10.20;;
77324;SDS011;66387;53.440;10.390;2023-03-30T03:34:51;14.40;;;10.90;;
77324;SDS011;66387;53.440;10.390;2023-03-30T03:37:17;16.48;;;10.65;;
77324;SDS011;66387;53.440;10.390;2023-03-30T03:39:42;17.40;;;12.37;;
77324;SDS011;66387;53.440;10.390;2023-03-30T03:42:08;16.03;;;10.67;;
77324;SDS011;66387;53.440;10.390;2023-03-30T03:44:33;12.23;;;9.25;;
77324;SDS011;66387;53.440;10.390;2023-03-30T03:46:59;14.33;;;10.97;;
77324;SDS011;66387;53.440;10.390;2023-03-30T03:49:24;13.77;;;9.40;;
77324;SDS011;66387;53.440;10.390;2023-03-30T03:51:49;15.95;;;9.98;;
77324;SDS011;66387;53.440;10.390;2023-03-30T03:54:14;14.10;;;9.73;;
77324;SDS011;66387;53.440;10.390;2023-03-30T03:56:40;17.48;;;10.50;;
77324;SDS011;66387;53.440;10.390;2023-03-30T03:59:05;15.10;;;10.63;;
77324;SDS011;66387;53.440;10.390;2023-03-30T04:01:31;13.70;;;9.33;;
77324;SDS011;66387;53.440;10.390;2023-03-30T04:03:56;17.10;;;10.97;;
77324;SDS011;66387;53.440;10.390;2023-03-30T04:06:21;15.27;;;10.63;;
77324;SDS011;66387;53.440;10.390;2023-03-30T04:08:47;20.33;;;10.65;;
77324;SDS011;66387;53.440;10.390;2023-03-30T04:11:12;18.43;;;12.10;;
77324;SDS011;66387;53.440;10.390;2023-03-30T04:13:37;18.60;;;12.50;;
77324;SDS011;66387;53.440;10.390;2023-03-30T04:16:03;16.52;;;10.52;;
77324;SDS011;66387;53.440;10.390;2023-03-30T04:18:29;15.85;;;10.68;;
77324;SDS011;66387;53.440;10.390;2023-03-30T04:20:57;14.57;;;10.75;;
77324;SDS011;66387;53.440;10.390;2023-03-30T04:23:23;14.30;;;10.13;;
77324;SDS011;66387;53.440;10.390;2023-03-30T04:25:49;16.35;;;10.13;;
77324;SDS011;66387;53.440;10.390;2023-03-30T04:28:15;15.73;;;10.68;;
77324;SDS011;66387;53.440;10.390;2023-03-30T04:30:45;17.83;;;10.48;;
77324;SDS011;66387;53.440;10.390;2023-03-30T04:33:10;15.30;;;9.88;;
77324;SDS011;66387;53.440;10.390;2023-03-30T04:35:38;13.55;;;9.45;;
77324;SDS011;66387;53.440;10.390;2023-03-30T04:38:03;14.25;;;10.05;;
77324;SDS011;66387;53.440;10.390;2023-03-30T04:40:30;14.10;;;10.30;;
77324;SDS011;66387;53.440;10.390;2023-03-30T04:42:55;13.93;;;9.30;;
77324;SDS011;66387;53.440;10.390;2023-03-30T04:45:26;17.15;;;10.00;;
77324;SDS011;66387;53.440;10.390;2023-03-30T04:47:51;13.27;;;9.80;;
77324;SDS011;66387;53.440;10.390;2023-03-30T04:50:17;12.50;;;8.83;;
77324;SDS011;66387;53.440;10.390;2023-03-30T04:52:42;14.17;;;10.07;;
77324;SDS011;66387;53.440;10.390;2023-03-30T04:55:07;14.63;;;9.20;;
77324;SDS011;66387;53.440;10.390;2023-03-30T04:57:33;12.85;;;9.88;;
77324;SDS011;66387;53.440;10.390;2023-03-30T04:59:59;12.07;;;9.25;;
77324;SDS011;66387;53.440;10.390;2023-03-30T05:02:24;16.33;;;10.87;;
77324;SDS011;66387;53.440;10.390;2023-03-30T05:04:49;12.68;;;8.77;;
77324;SDS011;66387;53.440;10.390;2023-03-30T05:07:15;14.00;;;10.50;;
77324;SDS011;66387;53.440;10.390;2023-03-30T05:09:40;13.07;;;9.53;;
77324;SDS011;66387;53.440;10.390;2023-03-30T05:12:05;15.57;;;9.77;;
77324;SDS011;66387;53.440;10.390;2023-03-30T05:14:31;14.18;;;10.20;;
77324;SDS011;66387;53.440;10.390;2023-03-30T05:16:56;12.67;;;8.80;;
77324;SDS011;66387;53.440;10.390;2023-03-30T05:19:22;11.98;;;8.55;;
77324;SDS011;66387;53.440;10.390;2023-03-30T05:21:48;12.35;;;8.73;;
77324;SDS011;66387;53.440;10.390;2023-03-30T05:24:13;12.50;;;8.40;;
77324;SDS011;66387;53.440;10.390;2023-03-30T05:26:38;15.90;;;9.88;;
77324;SDS011;66387;53.440;10.390;2023-03-30T05:29:03;15.03;;;9.00;;
77324;SDS011;66387;53.440;10.390;2023-03-30T05:31:29;12.15;;;8.80;;
77324;SDS011;66387;53.440;10.390;2023-03-30T05:33:54;14.33;;;8.90;;
77324;SDS011;66387;53.440;10.390;2023-03-30T05:36:20;13.30;;;9.70;;
77324;SDS011;66387;53.440;10.390;2023-03-30T05:38:45;13.77;;;9.50;;
77324;SDS011;66387;53.440;10.390;2023-03-30T05:41:10;12.77;;;9.03;;
77324;SDS011;66387;53.440;10.390;2023-03-30T05:43:36;11.23;;;8.10;;
77324;SDS011;66387;53.440;10.390;2023-03-30T05:46:01;13.53;;;8.30;;
77324;SDS011;66387;53.440;10.390;2023-03-30T05:48:28;11.05;;;8.15;;
77324;SDS011;66387;53.440;10.390;2023-03-30T05:50:54;14.95;;;8.95;;
77324;SDS011;66387;53.440;10.390;2023-03-30T05:53:19;9.70;;;7.35;;
77324;SDS011;66387;53.440;10.390;2023-03-30T05:55:45;15.30;;;9.15;;
77324;SDS011;66387;53.440;10.390;2023-03-30T05:58:11;10.85;;;7.90;;
77324;SDS011;66387;53.440;10.390;2023-03-30T06:00:37;12.98;;;8.15;;
77324;SDS011;66387;53.440;10.390;2023-03-30T06:03:05;10.32;;;7.28;;
77324;SDS011;66387;53.440;10.390;2023-03-30T06:05:33;12.15;;;8.77;;
77324;SDS011;66387;53.440;10.390;2023-03-30T06:08:03;12.00;;;8.82;;
77324;SDS011;66387;53.440;10.390;2023-03-30T06:10:29;12.48;;;7.75;;
77324;SDS011;66387;53.440;10.390;2023-03-30T06:12:54;12.10;;;7.77;;
77324;SDS011;66387;53.440;10.390;2023-03-30T06:15:19;9.82;;;7.15;;
77324;SDS011;66387;53.440;10.390;2023-03-30T06:17:45;11.77;;;7.28;;
77324;SDS011;66387;53.440;10.390;2023-03-30T06:20:10;11.93;;;6.80;;
77324;SDS011;66387;53.440;10.390;2023-03-30T06:22:37;10.20;;;7.72;;
77324;SDS011;66387;53.440;10.390;2023-03-30T06:25:05;12.38;;;8.80;;
77324;SDS011;66387;53.440;10.390;2023-03-30T06:27:32;10.10;;;7.30;;
77324;SDS011;66387;53.440;10.390;2023-03-30T06:29:58;12.27;;;8.20;;
77324;SDS011;66387;53.440;10.390;2023-03-30T06:32:23;12.97;;;8.20;;
77324;SDS011;66387;53.440;10.390;2023-03-30T06:34:49;10.70;;;7.82;;
77324;SDS011;66387;53.440;10.390;2023-03-30T06:37:14;12.05;;;8.27;;
77324;SDS011;66387;53.440;10.390;2023-03-30T06:39:39;12.60;;;8.10;;
77324;SDS011;66387;53.440;10.390;2023-03-30T06:42:05;12.20;;;7.93;;
77324;SDS011;66387;53.440;10.390;2023-03-30T06:44:30;11.48;;;8.07;;
77324;SDS011;66387;53.440;10.390;2023-03-30T06:46:57;10.88;;;7.85;;
77324;SDS011;66387;53.440;10.390;2023-03-30T06:49:22;10.90;;;6.80;;
77324;SDS011;66387;53.440;10.390;2023-03-30T06:51:48;9.83;;;8.07;;
77324;SDS011;66387;53.440;10.390;2023-03-30T06:54:13;12.23;;;8.13;;
77324;SDS011;66387;53.440;10.390;2023-03-30T06:56:38;13.45;;;7.90;;
77324;SDS011;66387;53.440;10.390;2023-03-30T06:59:04;14.17;;;8.30;;
77324;SDS011;66387;53.440;10.390;2023-03-30T07:01:29;10.30;;;6.80;;
77324;SDS011;66387;53.440;10.390;2023-03-30T07:03:54;12.40;;;6.53;;
77324;SDS011;66387;53.440;10.390;2023-03-30T07:06:20;11.07;;;7.28;;
77324;SDS011;66387;53.440;10.390;2023-03-30T07:08:46;8.63;;;6.22;;
77324;SDS011;66387;53.440;10.390;2023-03-30T07:11:12;8.05;;;6.10;;
77324;SDS011;66387;53.440;10.390;2023-03-30T07:13:37;10.00;;;5.90;;
77324;SDS011;66387;53.440;10.390;2023-03-30T07:16:03;10.15;;;5.47;;
77324;SDS011;66387;53.440;10.390;2023-03-30T07:18:28;7.97;;;5.80;;
77324;SDS011;66387;53.440;10.390;2023-03-30T07:20:56;8.18;;;5.53;;
77324;SDS011;66387;53.440;10.390;2023-03-30T07:23:22;7.90;;;6.07;;
77324;SDS011;66387;53.440;10.390;2023-03-30T07:25:47;8.40;;;5.83;;
77324;SDS011;66387;53.440;10.390;2023-03-30T07:28:12;11.83;;;5.87;;
77324;SDS011;66387;53.440;10.390;2023-03-30T07:30:38;6.78;;;4.90;;
77324;SDS011;66387;53.440;10.390;2023-03-30T07:33:03;9.65;;;6.30;;
77324;SDS011;66387;53.440;10.390;2023-03-30T07:35:29;7.10;;;5.27;;
77324;SDS011;66387;53.440;10.390;2023-03-30T07:37:54;9.38;;;5.50;;
77324;SDS011;66387;53.440;10.390;2023-03-30T07:40:20;11.43;;;5.50;;
77324;SDS011;66387;53.440;10.390;2023-03-30T07:42:46;8.57;;;5.43;;
77324;SDS011;66387;53.440;10.390;2023-03-30T07:45:12;10.18;;;5.30;;
77324;SDS011;66387;53.440;10.390;2023-03-30T07:47:38;8.50;;;4.68;;
77324;SDS011;66387;53.440;10.390;2023-03-30T07:50:03;8.32;;;5.72;;
77324;SDS011;66387;53.440;10.390;2023-03-30T07:52:30;7.53;;;5.25;;
77324;SDS011;66387;53.440;10.390;2023-03-30T07:54:56;9.25;;;5.07;;
77324;SDS011;66387;53.440;10.390;2023-03-30T07:57:21;9.50;;;5.43;;
77324;SDS011;66387;53.440;10.390;2023-03-30T07:59:47;7.70;;;5.13;;
77324;SDS011;66387;53.440;10.390;2023-03-30T08:02:12;6.57;;;4.87;;
77324;SDS011;66387;53.440;10.390;2023-03-30T08:04:39;8.32;;;5.18;;
77324;SDS011;66387;53.440;10.390;2023-03-30T08:07:05;7.47;;;4.93;;
77324;SDS011;66387;53.440;10.390;2023-03-30T08:09:31;8.95;;;5.43;;
77324;SDS011;66387;53.440;10.390;2023-03-30T08:11:56;8.47;;;5.03;;
77324;SDS011;66387;53.440;10.390;2023-03-30T08:14:22;10.13;;;5.10;;
77324;SDS011;66387;53.440;10.390;2023-03-30T08:16:48;8.68;;;4.93;;
77324;SDS011;66387;53.440;10.390;2023-03-30T08:19:13;7.30;;;5.03;;
77324;SDS011;66387;53.440;10.390;2023-03-30T08:21:38;7.20;;;4.35;;
77324;SDS011;66387;53.440;10.390;2023-03-30T08:24:04;7.87;;;6.10;;
77324;SDS011;66387;53.440;10.390;2023-03-30T08:26:29;7.50;;;4.65;;
77324;SDS011;66387;53.440;10.390;2023-03-30T08:28:55;6.77;;;4.60;;
77324;SDS011;66387;53.440;10.390;2023-03-30T08:31:20;6.70;;;4.47;;
77324;SDS011;66387;53.440;10.390;2023-03-30T08:33:46;8.40;;;4.30;;
77324;SDS011;66387;53.440;10.390;2023-03-30T08:36:12;7.43;;;4.88;;
77324;SDS011;66387;53.440;10.390;2023-03-30T08:38:37;6.65;;;4.47;;
77324;SDS011;66387;53.440;10.390;2023-03-30T08:41:20;7.43;;;4.70;;
77324;SDS011;66387;53.440;10.390;2023-03-30T08:46:28;7.15;;;4.60;;
77324;SDS011;66387;53.440;10.390;2023-03-30T08:48:54;5.43;;;4.40;;
77324;SDS011;66387;53.440;10.390;2023-03-30T08:51:28;6.43;;;4.95;;
77324;SDS011;66387;53.440;10.390;2023-03-30T08:53:56;7.00;;;4.28;;
77324;SDS011;66387;53.440;10.390;2023-03-30T08:56:29;5.88;;;4.40;;
77324;SDS011;66387;53.440;10.390;2023-03-30T09:02:18;6.60;;;3.85;;
77324;SDS011;66387;53.440;10.390;2023-03-30T09:04:57;6.13;;;3.65;;
77324;SDS011;66387;53.440;10.390;2023-03-30T09:07:39;9.90;;;3.90;;
77324;SDS011;66387;53.440;10.390;2023-03-30T09:10:12;6.05;;;3.63;;
77324;SDS011;66387;53.440;10.390;2023-03-30T09:12:49;4.88;;;3.72;;
77324;SDS011;66387;53.440;10.390;2023-03-30T09:15:21;4.97;;;3.38;;
77324;SDS011;66387;53.440;10.390;2023-03-30T09:17:58;8.30;;;4.07;;
77324;SDS011;66387;53.440;10.390;2023-03-30T09:20:32;7.93;;;4.20;;
77324;SDS011;66387;53.440;10.390;2023-03-30T09:23:00;5.75;;;3.90;;
77324;SDS011;66387;53.440;10.390;2023-03-30T09:25:29;4.88;;;3.35;;
77324;SDS011;66387;53.440;10.390;2023-03-30T09:30:33;6.15;;;3.50;;
77324;SDS011;66387;53.440;10.390;2023-03-30T09:33:05;5.85;;;3.05;;
77324;SDS011;66387;53.440;10.390;2023-03-30T09:35:40;4.72;;;2.90;;
77324;SDS011;66387;53.440;10.390;2023-03-30T09:38:09;3.58;;;2.97;;
77324;SDS011;66387;53.440;10.390;2023-03-30T09:40:49;5.60;;;2.83;;
77324;SDS011;66387;53.440;10.390;2023-03-30T09:43:35;6.10;;;2.90;;
77324;SDS011;66387;53.440;10.390;2023-03-30T09:46:07;5.60;;;2.72;;
77324;SDS011;66387;53.440;10.390;2023-03-30T09:48:36;5.85;;;2.83;;
77324;SDS011;66387;53.440;10.390;2023-03-30T09:51:11;6.53;;;3.72;;
77324;SDS011;66387;53.440;10.390;2023-03-30T09:53:38;3.83;;;2.20;;
77324;SDS011;66387;53.440;10.390;2023-03-30T09:56:09;7.68;;;4.70;;
77324;SDS011;66387;53.440;10.390;2023-03-30T09:58:42;5.93;;;2.88;;
77324;SDS011;66387;53.440;10.390;2023-03-30T10:01:08;3.77;;;2.83;;
77324;SDS011;66387;53.440;10.390;2023-03-30T10:03:39;4.78;;;2.97;;
77324;SDS011;66387;53.440;10.390;2023-03-30T10:13:58;5.10;;;2.70;;
77324;SDS011;66387;53.440;10.390;2023-03-30T10:16:27;4.85;;;2.45;;
77324;SDS011;66387;53.440;10.390;2023-03-30T10:18:59;5.28;;;3.45;;
77324;SDS011;66387;53.440;10.390;2023-03-30T10:21:36;5.10;;;2.60;;
77324;SDS011;66387;53.440;10.390;2023-03-30T10:24:36;4.80;;;2.53;;
77324;SDS011;66387;53.440;10.390;2023-03-30T10:29:35;4.15;;;2.35;;
77324;SDS011;66387;53.440;10.390;2023-03-30T10:32:01;4.00;;;2.30;;
77324;SDS011;66387;53.440;10.390;2023-03-30T10:34:37;3.45;;;2.33;;
77324;SDS011;66387;53.440;10.390;2023-03-30T10:37:08;3.05;;;1.70;;
77324;SDS011;66387;53.440;10.390;2023-03-30T10:39:41;3.75;;;1.90;;
77324;SDS011;66387;53.440;10.390;2023-03-30T10:42:10;6.57;;;2.50;;
77324;SDS011;66387;53.440;10.390;2023-03-30T10:44:44;3.83;;;1.67;;
77324;SDS011;66387;53.440;10.390;2023-03-30T10:50:12;3.25;;;1.40;;
77324;SDS011;66387;53.440;10.390;2023-03-30T10:56:03;3.53;;;1.50;;
77324;SDS011;66387;53.440;10.390;2023-03-30T10:58:50;3.13;;;1.60;;
77324;SDS011;66387;53.440;10.390;2023-03-30T11:01:34;2.60;;;1.73;;
77324;SDS011;66387;53.440;10.390;2023-03-30T11:04:10;2.67;;;1.80;;
77324;SDS011;66387;53.440;10.390;2023-03-30T11:06:44;4.07;;;1.77;;
77324;SDS011;66387;53.440;10.390;2023-03-30T11:09:12;4.90;;;1.98;;
77324;SDS011;66387;53.440;10.390;2023-03-30T11:11:48;3.90;;;1.98;;
77324;SDS011;66387;53.440;10.390;2023-03-30T11:14:21;3.63;;;1.63;;
77324;SDS011;66387;53.440;10.390;2023-03-30T11:16:52;5.60;;;1.42;;
77324;SDS011;66387;53.440;10.390;2023-03-30T11:19:23;2.72;;;1.63;;
77324;SDS011;66387;53.440;10.390;2023-03-30T11:22:03;6.13;;;1.73;;
77324;SDS011;66387;53.440;10.390;2023-03-30T11:24:51;3.50;;;1.67;;
77324;SDS011;66387;53.440;10.390;2023-03-30T11:30:25;4.10;;;1.63;;
77324;SDS011;66387;53.440;10.390;2023-03-30T11:35:51;4.43;;;3.78;;
77324;SDS011;66387;53.440;10.390;2023-03-30T11:39:04;4.47;;;1.65;;
77324;SDS011;66387;53.440;10.390;2023-03-30T11:41:21;3.80;;;1.58;;
77324;SDS011;66387;53.440;10.390;2023-03-30T11:43:55;4.07;;;2.00;;
77324;SDS011;66387;53.440;10.390;2023-03-30T11:46:41;3.78;;;1.45;;
77324;SDS011;66387;53.440;10.390;2023-03-30T11:49:37;2.30;;;1.55;;
77324;SDS011;66387;53.440;10.390;2023-03-30T11:52:09;5.10;;;2.20;;
77324;SDS011;66387;53.440;10.390;2023-03-30T11:55:33;2.08;;;1.75;;
77324;SDS011;66387;53.440;10.390;2023-03-30T12:00:24;3.80;;;1.90;;
77324;SDS011;66387;53.440;10.390;2023-03-30T12:05:59;6.28;;;2.83;;
77324;SDS011;66387;53.440;10.390;2023-03-30T12:11:39;3.88;;;2.25;;
77324;SDS011;66387;53.440;10.390;2023-03-30T12:17:33;3.75;;;1.70;;
77324;SDS011;66387;53.440;10.390;2023-03-30T12:31:17;4.63;;;1.90;;
77324;SDS011;66387;53.440;10.390;2023-03-30T12:33:47;5.13;;;1.85;;
77324;SDS011;66387;53.440;10.390;2023-03-30T12:38:58;6.03;;;1.90;;
77324;SDS011;66387;53.440;10.390;2023-03-30T12:41:37;3.88;;;1.63;;
77324;SDS011;66387;53.440;10.390;2023-03-30T12:47:29;6.65;;;3.55;;
77324;SDS011;66387;53.440;10.390;2023-03-30T12:50:10;1.92;;;1.27;;
77324;SDS011;66387;53.440;10.390;2023-03-30T12:58:15;5.40;;;1.50;;
77324;SDS011;66387;53.440;10.390;2023-03-30T13:24:37;4.85;;;1.70;;
77324;SDS011;66387;53.440;10.390;2023-03-30T13:29:35;6.40;;;1.95;;
77324;SDS011;66387;53.440;10.390;2023-03-30T13:32:02;5.95;;;2.10;;
77324;SDS011;66387;53.440;10.390;2023-03-30T13:39:44;5.20;;;1.70;;
77324;SDS011;66387;53.440;10.390;2023-03-30T13:45:17;5.95;;;1.90;;
77324;SDS011;66387;53.440;10.390;2023-03-30T13:50:35;5.80;;;1.58;;
77324;SDS011;66387;53.440;10.390;2023-03-30T13:53:02;5.40;;;1.85;;
77324;SDS011;66387;53.440;10.390;2023-03-30T13:55:42;6.57;;;2.40;;
77324;SDS011;66387;53.440;10.390;2023-03-30T14:00:51;8.35;;;2.00;;
77324;SDS011;66387;53.440;10.390;2023-03-30T14:08:37;4.10;;;1.77;;
77324;SDS011;66387;53.440;10.390;2023-03-30T14:11:06;7.75;;;1.50;;
77324;SDS011;66387;53.440;10.390;2023-03-30T14:13:37;4.50;;;1.75;;
77324;SDS011;66387;53.440;10.390;2023-03-30T14:16:02;5.20;;;1.98;;
77324;SDS011;66387;53.440;10.390;2023-03-30T14:18:28;4.78;;;1.50;;
77324;SDS011;66387;53.440;10.390;2023-03-30T14:20:58;7.85;;;2.33;;
77324;SDS011;66387;53.440;10.390;2023-03-30T14:23:30;7.18;;;1.40;;
77324;SDS011;66387;53.440;10.390;2023-03-30T14:25:59;4.75;;;1.58;;
77324;SDS011;66387;53.440;10.390;2023-03-30T14:28:27;6.18;;;1.75;;
77324;SDS011;66387;53.440;10.390;2023-03-30T14:30:55;4.68;;;1.33;;
77324;SDS011;66387;53.440;10.390;2023-03-30T14:33:22;5.80;;;2.70;;
77324;SDS011;66387;53.440;10.390;2023-03-30T14:35:53;6.32;;;1.63;;
77324;SDS011;66387;53.440;10.390;2023-03-30T14:40:53;3.70;;;1.50;;
77324;SDS011;66387;53.440;10.390;2023-03-30T14:43:29;5.28;;;1.42;;
77324;SDS011;66387;53.440;10.390;2023-03-30T14:45:56;5.72;;;3.22;;
77324;SDS011;66387;53.440;10.390;2023-03-30T14:48:30;6.00;;;1.45;;
77324;SDS011;66387;53.440;10.390;2023-03-30T14:50:57;9.43;;;2.30;;
77324;SDS011;66387;53.440;10.390;2023-03-30T14:53:25;3.00;;;1.40;;
77324;SDS011;66387;53.440;10.390;2023-03-30T14:55:52;4.47;;;1.30;;
77324;SDS011;66387;53.440;10.390;2023-03-30T14:58:22;5.07;;;1.60;;
77324;SDS011;66387;53.440;10.390;2023-03-30T15:03:17;2.38;;;1.23;;
77324;SDS011;66387;53.440;10.390;2023-03-30T15:05:42;2.45;;;1.15;;
77324;SDS011;66387;53.440;10.390;2023-03-30T15:08:19;5.70;;;1.50;;
77324;SDS011;66387;53.440;10.390;2023-03-30T15:10:49;4.40;;;1.30;;
77324;SDS011;66387;53.440;10.390;2023-03-30T15:13:23;5.70;;;1.42;;
77324;SDS011;66387;53.440;10.390;2023-03-30T15:15:54;3.17;;;1.38;;
77324;SDS011;66387;53.440;10.390;2023-03-30T15:18:21;4.05;;;1.17;;
77324;SDS011;66387;53.440;10.390;2023-03-30T15:20:49;3.35;;;1.58;;
77324;SDS011;66387;53.440;10.390;2023-03-30T15:23:15;4.70;;;1.45;;
77324;SDS011;66387;53.440;10.390;2023-03-30T15:25:41;3.40;;;1.20;;
77324;SDS011;66387;53.440;10.390;2023-03-30T15:28:12;4.75;;;1.35;;
77324;SDS011;66387;53.440;10.390;2023-03-30T15:30:43;4.55;;;1.13;;
77324;SDS011;66387;53.440;10.390;2023-03-30T15:33:24;3.17;;;1.40;;
77324;SDS011;66387;53.440;10.390;2023-03-30T15:35:55;3.22;;;1.38;;
77324;SDS011;66387;53.440;10.390;2023-03-30T15:38:30;6.97;;;1.83;;
77324;SDS011;66387;53.440;10.390;2023-03-30T15:40:58;6.03;;;1.83;;
77324;SDS011;66387;53.440;10.390;2023-03-30T15:43:24;3.88;;;1.30;;
77324;SDS011;66387;53.440;10.390;2023-03-30T15:46:11;2.28;;;1.35;;
77324;SDS011;66387;53.440;10.390;2023-03-30T15:48:43;3.08;;;1.63;;
77324;SDS011;66387;53.440;10.390;2023-03-30T15:56:20;1.92;;;1.02;;
77324;SDS011;66387;53.440;10.390;2023-03-30T15:59:11;2.65;;;1.17;;
77324;SDS011;66387;53.440;10.390;2023-03-30T16:01:41;6.00;;;1.80;;
77324;SDS011;66387;53.440;10.390;2023-03-30T16:04:16;4.65;;;1.75;;
77324;SDS011;66387;53.440;10.390;2023-03-30T16:06:43;4.22;;;2.75;;
77324;SDS011;66387;53.440;10.390;2023-03-30T16:09:09;4.95;;;2.33;;
77324;SDS011;66387;53.440;10.390;2023-03-30T16:11:34;6.88;;;2.40;;
77324;SDS011;66387;53.440;10.390;2023-03-30T16:14:00;6.07;;;3.08;;
77324;SDS011;66387;53.440;10.390;2023-03-30T16:16:27;6.10;;;2.00;;
77324;SDS011;66387;53.440;10.390;2023-03-30T16:18:52;4.00;;;1.77;;
77324;SDS011;66387;53.440;10.390;2023-03-30T16:21:17;4.83;;;1.93;;
77324;SDS011;66387;53.440;10.390;2023-03-30T16:23:43;6.47;;;2.50;;
77324;SDS011;66387;53.440;10.390;2023-03-30T16:26:11;6.60;;;2.50;;
77324;SDS011;66387;53.440;10.390;2023-03-30T16:28:36;9.02;;;2.28;;
77324;SDS011;66387;53.440;10.390;2023-03-30T16:31:03;4.97;;;1.65;;
77324;SDS011;66387;53.440;10.390;2023-03-30T16:33:35;6.57;;;2.45;;
77324;SDS011;66387;53.440;10.390;2023-03-30T16:36:00;5.60;;;1.80;;
77324;SDS011;66387;53.440;10.390;2023-03-30T16:38:25;6.90;;;2.37;;
77324;SDS011;66387;53.440;10.390;2023-03-30T16:40:51;7.13;;;2.30;;
77324;SDS011;66387;53.440;10.390;2023-03-30T16:43:20;8.27;;;3.03;;
77324;SDS011;66387;53.440;10.390;2023-03-30T16:45:45;4.87;;;2.20;;
77324;SDS011;66387;53.440;10.390;2023-03-30T16:48:11;6.47;;;3.13;;
77324;SDS011;66387;53.440;10.390;2023-03-30T16:50:42;5.40;;;1.70;;
77324;SDS011;66387;53.440;10.390;2023-03-30T16:53:15;5.55;;;2.10;;
77324;SDS011;66387;53.440;10.390;2023-03-30T16:55:40;8.57;;;2.03;;
77324;SDS011;66387;53.440;10.390;2023-03-30T16:58:06;5.77;;;2.13;;
77324;SDS011;66387;53.440;10.390;2023-03-30T17:00:40;7.18;;;2.03;;
77324;SDS011;66387;53.440;10.390;2023-03-30T17:03:07;4.32;;;1.77;;
77324;SDS011;66387;53.440;10.390;2023-03-30T17:05:33;16.08;;;8.48;;
77324;SDS011;66387;53.440;10.390;2023-03-30T17:08:03;5.78;;;2.67;;
77324;SDS011;66387;53.440;10.390;2023-03-30T17:10:38;5.05;;;1.67;;
77324;SDS011;66387;53.440;10.390;2023-03-30T17:13:04;5.30;;;2.33;;
77324;SDS011;66387;53.440;10.390;2023-03-30T17:15:30;5.97;;;3.22;;
77324;SDS011;66387;53.440;10.390;2023-03-30T17:17:55;22.43;;;10.73;;
77324;SDS011;66387;53.440;10.390;2023-03-30T17:23:07;10.98;;;6.07;;